»·PEaware :: SWA549 KSFO-KSNA

SWA549 :: KSFO-KSNA

FLIGHT INFORMATION

Flight Status: Arrived
Operator:
Southwest Airlines
More flights by this operator :: More flights under this callsign
Pilot: Julio E. (545)
Aircraft: BOEING 737-700
(B737)
More flights by this aircraft type
Origin: KSFO San Francisco Intl
United States
Destination: KSNA John Wayne-Orange Co
United States
More flights between these airports :: More routes between these airports
Route: OFFSH7 MCKEY LOBER BENET SXC
File this flight plan on PilotEdge
Remarks: / V /
Altitude:
(Current/Filed)
39,000ft
Speed:
(Current/Filed)
180kts
Departed: 09-Dec-13 05:45 PM
Arrived: 09-Dec-13 06:45 PM
Distance/Time
Traveled:
323nm/0:59
Distance/Time
To Go:
Arrived

Flight Plot

Page will automatically refresh every two minutes.


Map Options




Map Legend


Flown Route
Filed Route
Departure Airport
Arrival Airport
Navaid (VOR, NDB)
Fix

Horizontal Profiles

Position Reports

Time Latitude Longitude Heading Altitude Ground
Speed
09-Dec-13 17:15 37.612392 -122.383331 11 19ft 0kts
09-Dec-13 17:16 37.612392 -122.383331 11 19ft 0kts
09-Dec-13 17:17 37.612392 -122.383331 11 19ft 0kts
09-Dec-13 17:18 37.612392 -122.383331 11 19ft 0kts
09-Dec-13 17:19 37.612392 -122.383331 11 20ft 0kts
09-Dec-13 17:20 37.612392 -122.383331 11 20ft 0kts
09-Dec-13 17:21 37.612392 -122.383331 11 20ft 0kts
09-Dec-13 17:22 37.612392 -122.383331 11 20ft 0kts
09-Dec-13 17:23 37.612392 -122.383331 11 20ft 0kts
09-Dec-13 17:24 37.612392 -122.383331 11 20ft 0kts
09-Dec-13 17:25 37.612392 -122.383331 11 20ft 0kts
09-Dec-13 17:26 37.612392 -122.383331 11 20ft 0kts
09-Dec-13 17:27 37.612392 -122.383331 11 20ft 0kts
09-Dec-13 17:28 37.612392 -122.383331 11 20ft 0kts
09-Dec-13 17:29 37.612392 -122.383331 11 20ft 0kts
09-Dec-13 17:30 37.612392 -122.383331 11 20ft 0kts
09-Dec-13 17:31 37.612392 -122.383331 11 20ft 0kts
09-Dec-13 17:32 37.612392 -122.383331 11 20ft 0kts
09-Dec-13 17:33 37.612392 -122.383331 11 20ft 0kts
09-Dec-13 17:34 37.612392 -122.383331 11 20ft 0kts
09-Dec-13 17:35 37.612111 -122.383423 14 20ft 0kts
09-Dec-13 17:36 37.611801 -122.383829 109 20ft 0kts
09-Dec-13 17:37 37.611803 -122.383836 109 20ft 0kts
09-Dec-13 17:38 37.611802 -122.383832 109 20ft 0kts
09-Dec-13 17:39 37.611683 -122.383467 114 20ft 0kts
09-Dec-13 17:40 37.611667 -122.383423 114 20ft 2kts
09-Dec-13 17:41 37.610657 -122.383530 212 20ft 7kts
09-Dec-13 17:42 37.609851 -122.383074 117 20ft 0kts
09-Dec-13 17:43 37.609420 -122.381992 87 20ft 3kts
09-Dec-13 17:44 37.630034 -122.368358 25 414ft 146kts
09-Dec-13 17:45 37.667443 -122.364243 349 1915ft 188kts
09-Dec-13 17:46 37.713557 -122.405613 267 3340ft 255kts
09-Dec-13 17:47 37.670320 -122.476175 236 6873ft 266kts
09-Dec-13 17:48 37.628745 -122.556262 238 10513ft 280kts
09-Dec-13 17:49 37.580442 -122.648793 239 12947ft 338kts
09-Dec-13 17:50 37.506110 -122.719753 184 16626ft 368kts
09-Dec-13 17:51 37.402690 -122.689807 167 19773ft 397kts
09-Dec-13 17:52 37.290839 -122.658538 170 22528ft 424kts
09-Dec-13 17:53 37.172121 -122.626842 171 24916ft 448kts
09-Dec-13 17:54 37.046820 -122.594003 170 26959ft 471kts
09-Dec-13 17:55 36.915056 -122.559662 169 28677ft 493kts
09-Dec-13 17:56 36.777886 -122.524070 168 30245ft 510kts
09-Dec-13 17:57 36.636919 -122.487458 168 31739ft 522kts
09-Dec-13 17:58 36.494649 -122.450779 169 33551ft 519kts
09-Dec-13 17:59 36.372731 -122.362546 128 35164ft 509kts
09-Dec-13 18:00 36.281063 -122.227555 126 36425ft 510kts
09-Dec-13 18:01 36.189088 -122.093312 127 37651ft 510kts
09-Dec-13 18:02 36.096764 -121.958914 127 38710ft 511kts
09-Dec-13 18:03 36.003893 -121.824813 127 39397ft 515kts
09-Dec-13 18:04 35.910816 -121.691066 127 39404ft 512kts
09-Dec-13 18:05 35.817504 -121.557534 126 39388ft 515kts
09-Dec-13 18:06 35.723761 -121.423903 126 39391ft 513kts
09-Dec-13 18:07 35.629614 -121.289855 127 39362ft 520kts
09-Dec-13 18:08 35.534623 -121.155733 127 39366ft 517kts
09-Dec-13 18:09 35.425828 -121.038036 145 39279ft 528kts
09-Dec-13 18:10 35.303588 -120.938203 144 39232ft 527kts
09-Dec-13 18:11 35.181816 -120.837526 144 39180ft 527kts
09-Dec-13 18:12 35.060541 -120.736961 144 39218ft 523kts
09-Dec-13 18:13 34.939677 -120.637195 144 39257ft 518kts
09-Dec-13 18:14 34.820024 -120.538802 144 39348ft 519kts
09-Dec-13 18:15 34.699938 -120.440408 144 39375ft 520kts
09-Dec-13 18:16 34.579898 -120.342394 144 39369ft 516kts
09-Dec-13 18:17 34.460539 -120.245073 144 39373ft 517kts
09-Dec-13 18:18 34.340261 -120.147644 146 38740ft 518kts
09-Dec-13 18:19 34.232732 -120.033464 122 35987ft 513kts
09-Dec-13 18:20 34.156329 -119.886699 120 33036ft 511kts
09-Dec-13 18:21 34.080872 -119.743783 123 30679ft 496kts
09-Dec-13 18:22 34.007522 -119.605590 125 28347ft 479kts
09-Dec-13 18:23 33.936919 -119.473812 126 26062ft 458kts
09-Dec-13 18:24 33.868603 -119.346944 124 23807ft 442kts
09-Dec-13 18:25 33.802542 -119.224717 122 21600ft 427kts
09-Dec-13 18:26 33.738943 -119.107021 120 19449ft 410kts
09-Dec-13 18:27 33.679435 -118.997683 121 17634ft 365kts
09-Dec-13 18:28 33.625536 -118.899099 123 15581ft 339kts
09-Dec-13 18:29 33.575415 -118.805766 122 14139ft 322kts
09-Dec-13 18:30 33.527762 -118.713271 122 13993ft 328kts
09-Dec-13 18:31 33.479724 -118.620492 123 13775ft 323kts
09-Dec-13 18:32 33.440743 -118.545689 121 12530ft 306kts
09-Dec-13 18:33 33.390771 -118.450000 121 10892ft 269kts
09-Dec-13 18:34 33.371555 -118.383371 78 9459ft 263kts
09-Dec-13 18:35 33.394940 -118.301082 72 7836ft 257kts
09-Dec-13 18:36 33.419058 -118.220331 72 6986ft 258kts
09-Dec-13 18:37 33.443277 -118.138417 72 6965ft 258kts
09-Dec-13 18:38 33.466596 -118.060898 72 5776ft 244kts
09-Dec-13 18:39 33.502045 -118.001058 33 4599ft 221kts
09-Dec-13 18:40 33.553823 -117.962743 33 3051ft 215kts
09-Dec-13 18:41 33.596694 -117.918043 37 1913ft 181kts
09-Dec-13 18:42 33.638232 -117.892603 29 682ft 153kts
09-Dec-13 18:43 33.672501 -117.870854 28 64ft 118kts
09-Dec-13 18:44 33.681190 -117.865338 29 64ft 9kts
09-Dec-13 18:45 33.680518 -117.862784 113 64ft 6kts
09-Dec-13 18:46 33.680205 -117.861841 117 64ft 0kts
09-Dec-13 18:47 33.680204 -117.861839 117 64ft 0kts

Navigation Log

Ident Type
Flight plan parsing failed, navigation log unavailable